createdAt,value
2018-09-02T00:00:33.717Z,13.40
2018-09-02T00:03:03.336Z,13.50
2018-09-02T00:05:31.696Z,13.40
2018-09-02T00:08:00.484Z,13.30
2018-09-02T00:10:29.453Z,13.30
2018-09-02T00:12:57.774Z,13.30
2018-09-02T00:15:26.088Z,13.10
2018-09-02T00:17:54.409Z,13.10
2018-09-02T00:20:22.794Z,13.20
2018-09-02T00:22:51.192Z,13.10
2018-09-02T00:25:19.795Z,13.10
2018-09-02T00:27:48.113Z,13.10
2018-09-02T00:30:17.451Z,13.00
2018-09-02T00:32:45.756Z,13.00
2018-09-02T00:35:14.141Z,12.90
2018-09-02T00:37:42.456Z,12.90
2018-09-02T00:40:10.829Z,12.80
2018-09-02T00:42:39.153Z,12.70
2018-09-02T00:45:07.755Z,12.70
2018-09-02T00:47:36.128Z,12.60
2018-09-02T00:50:04.493Z,12.50
2018-09-02T00:52:32.805Z,12.30
2018-09-02T00:55:01.725Z,12.30
2018-09-02T00:57:30.016Z,12.30
2018-09-02T00:59:58.435Z,12.40
2018-09-02T01:02:26.766Z,12.40
2018-09-02T01:04:55.113Z,12.50
2018-09-02T01:07:23.499Z,12.40
2018-09-02T01:09:51.816Z,12.40
2018-09-02T01:12:20.196Z,12.50
2018-09-02T01:14:48.511Z,12.50
2018-09-02T01:17:16.820Z,12.50
2018-09-02T01:19:45.168Z,12.50
2018-09-02T01:22:17.875Z,12.50
2018-09-02T01:24:46.493Z,12.50
2018-09-02T01:27:14.846Z,12.50
2018-09-02T01:29:43.178Z,12.20
2018-09-02T01:32:11.520Z,12.00
2018-09-02T01:34:39.852Z,12.00
2018-09-02T01:37:08.181Z,12.00
2018-09-02T01:39:36.501Z,11.90
2018-09-02T01:42:04.836Z,11.90
2018-09-02T01:44:33.154Z,11.90
2018-09-02T01:47:01.518Z,11.90
2018-09-02T01:49:29.825Z,11.90
2018-09-02T01:51:58.137Z,11.90
2018-09-02T01:54:26.457Z,11.90
2018-09-02T01:56:54.810Z,12.00
2018-09-02T01:59:23.754Z,12.10
2018-09-02T02:01:52.076Z,12.00
2018-09-02T02:04:20.441Z,12.00
2018-09-02T02:06:48.797Z,12.00
2018-09-02T02:09:17.096Z,12.00
2018-09-02T02:11:45.412Z,11.80
2018-09-02T02:14:13.745Z,11.80
2018-09-02T02:16:42.101Z,11.80
2018-09-02T02:19:10.436Z,11.80
2018-09-02T02:21:38.761Z,11.70
2018-09-02T02:24:07.161Z,11.70
2018-09-02T02:26:35.502Z,11.70
2018-09-02T02:29:03.842Z,11.50
2018-09-02T02:31:32.185Z,11.50
2018-09-02T02:34:00.517Z,11.50
2018-09-02T02:36:28.833Z,11.50
2018-09-02T02:38:57.149Z,11.50
2018-09-02T02:41:25.457Z,11.50
2018-09-02T02:43:54.276Z,11.50
2018-09-02T02:46:22.599Z,11.50
2018-09-02T02:48:50.942Z,11.50
2018-09-02T02:51:19.256Z,11.40
2018-09-02T02:53:47.578Z,11.30
2018-09-02T02:56:15.912Z,11.20
2018-09-02T02:58:44.400Z,11.30
2018-09-02T03:01:12.724Z,11.20
2018-09-02T03:03:41.049Z,11.10
2018-09-02T03:06:09.374Z,11.10
2018-09-02T03:08:37.721Z,11.00
2018-09-02T03:11:06.058Z,11.00
2018-09-02T03:13:34.377Z,11.00
2018-09-02T03:16:02.704Z,11.10
2018-09-02T03:18:31.032Z,11.10
2018-09-02T03:20:59.395Z,11.20
2018-09-02T03:23:27.689Z,11.20
2018-09-02T03:25:56.671Z,11.10
2018-09-02T03:28:24.984Z,11.00
2018-09-02T03:30:53.316Z,11.00
2018-09-02T03:33:21.626Z,11.00
2018-09-02T03:35:49.944Z,10.90
2018-09-02T03:38:18.938Z,10.90
2018-09-02T03:40:47.263Z,11.00
2018-09-02T03:43:15.598Z,10.90
2018-09-02T03:45:44.171Z,10.90
2018-09-02T03:48:12.500Z,10.90
2018-09-02T03:50:40.823Z,11.00
2018-09-02T03:53:09.152Z,10.90
2018-09-02T03:55:37.464Z,10.90
2018-09-02T03:58:05.837Z,10.80
2018-09-02T04:00:34.201Z,10.90
2018-09-02T04:03:02.505Z,10.80
2018-09-02T04:05:30.872Z,10.70
2018-09-02T04:07:59.208Z,10.80
2018-09-02T04:10:27.537Z,10.80
2018-09-02T04:12:55.864Z,10.70
2018-09-02T04:15:24.236Z,10.80
2018-09-02T04:17:53.157Z,10.80
2018-09-02T04:20:36.517Z,10.60
2018-09-02T04:23:06.372Z,10.60
2018-09-02T04:25:34.992Z,10.60
2018-09-02T04:28:03.324Z,10.50
2018-09-02T04:30:31.660Z,10.40
2018-09-02T04:32:59.993Z,10.50
2018-09-02T04:35:28.345Z,10.60
2018-09-02T04:37:56.681Z,10.50
2018-09-02T04:40:25.113Z,10.50
2018-09-02T04:42:53.514Z,10.60
2018-09-02T04:45:22.008Z,10.60
2018-09-02T04:47:50.233Z,10.50
2018-09-02T04:50:19.856Z,10.50
2018-09-02T04:52:48.181Z,10.40
2018-09-02T04:55:16.516Z,10.50
2018-09-02T04:57:45.362Z,10.50
2018-09-02T05:00:13.786Z,10.50
2018-09-02T05:02:42.029Z,10.50
2018-09-02T05:05:10.387Z,10.60
2018-09-02T05:07:39.253Z,10.60
2018-09-02T05:10:07.636Z,10.70
2018-09-02T05:12:35.991Z,10.60
2018-09-02T05:15:04.397Z,10.60
2018-09-02T05:17:33.492Z,10.70
2018-09-02T05:20:01.815Z,10.70
2018-09-02T05:22:30.308Z,10.80
2018-09-02T05:24:58.612Z,10.80
2018-09-02T05:27:26.992Z,10.90
2018-09-02T05:29:55.321Z,11.00
2018-09-02T05:32:23.646Z,10.90
2018-09-02T05:34:51.969Z,11.00
2018-09-02T05:37:20.311Z,11.10
2018-09-02T05:39:48.621Z,11.10
2018-09-02T05:42:16.944Z,11.20
2018-09-02T05:44:45.272Z,11.20
2018-09-02T05:47:13.618Z,11.10
2018-09-02T05:49:41.932Z,11.00
2018-09-02T05:52:10.390Z,10.90
2018-09-02T05:54:38.699Z,11.00
2018-09-02T05:57:07.037Z,11.20
2018-09-02T05:59:35.379Z,11.30
2018-09-02T06:02:03.945Z,11.50
2018-09-02T06:04:32.293Z,11.50
2018-09-02T06:07:00.639Z,11.50
2018-09-02T06:09:29.192Z,11.60
2018-09-02T06:11:57.549Z,11.70
2018-09-02T06:14:25.934Z,11.80
2018-09-02T06:16:54.272Z,11.80
2018-09-02T06:19:24.195Z,11.90
2018-09-02T06:21:53.050Z,12.00
2018-09-02T06:24:22.096Z,12.10
2018-09-02T06:26:50.486Z,12.20
2018-09-02T06:29:18.844Z,12.30
2018-09-02T06:31:47.176Z,12.40
2018-09-02T06:34:15.519Z,12.50
2018-09-02T06:36:43.872Z,12.60
2018-09-02T06:39:13.478Z,12.70
2018-09-02T06:41:41.829Z,12.80
2018-09-02T06:44:10.549Z,12.80
2018-09-02T06:46:38.894Z,12.90
2018-09-02T06:49:07.218Z,13.00
2018-09-02T06:51:35.556Z,13.00
2018-09-02T06:54:03.909Z,13.10
2018-09-02T06:56:32.585Z,13.20
2018-09-02T06:59:00.889Z,13.40
2018-09-02T07:01:29.271Z,13.40
2018-09-02T07:03:57.593Z,13.60
2018-09-02T07:06:39.516Z,13.70
2018-09-02T07:09:07.821Z,13.80
2018-09-02T07:11:47.021Z,13.90
2018-09-02T07:14:15.412Z,14.00
2018-09-02T07:16:43.691Z,14.10
2018-09-02T07:19:14.036Z,14.20
2018-09-02T07:21:42.478Z,14.30
2018-09-02T07:24:10.800Z,14.40
2018-09-02T07:26:39.129Z,14.50
2018-09-02T07:29:07.533Z,14.60
2018-09-02T07:31:35.924Z,14.70
2018-09-02T07:34:04.221Z,14.80
2018-09-02T07:36:32.524Z,14.90
2018-09-02T07:39:00.906Z,15.00
2018-09-02T07:41:29.254Z,15.20
2018-09-02T07:43:57.615Z,15.30
2018-09-02T07:46:26.030Z,15.40
2018-09-02T07:48:54.374Z,15.50
2018-09-02T07:51:22.704Z,15.60
2018-09-02T07:53:51.076Z,15.70
2018-09-02T07:56:19.457Z,15.90
2018-09-02T07:58:47.782Z,16.00
2018-09-02T08:01:16.481Z,16.10
2018-09-02T08:03:44.832Z,16.20
2018-09-02T08:06:13.177Z,16.30
2018-09-02T08:08:41.589Z,16.40
2018-09-02T08:11:09.988Z,16.50
2018-09-02T08:13:39.152Z,16.60
2018-09-02T08:16:07.700Z,16.60
2018-09-02T08:18:36.033Z,16.70
2018-09-02T08:21:04.455Z,17.00
2018-09-02T08:23:32.813Z,17.20
2018-09-02T08:26:03.572Z,17.30
2018-09-02T08:28:31.941Z,17.50
2018-09-02T08:31:00.344Z,17.50
2018-09-02T08:33:28.649Z,17.80
2018-09-02T08:35:56.961Z,17.80
2018-09-02T08:38:25.265Z,18.00
2018-09-02T08:40:53.597Z,18.00
2018-09-02T08:43:21.924Z,18.20
2018-09-02T08:45:50.284Z,18.40
2018-09-02T08:48:18.636Z,18.50
2018-09-02T08:50:46.986Z,18.60
2018-09-02T08:53:15.416Z,18.70
2018-09-02T08:55:47.185Z,18.80
2018-09-02T08:58:15.488Z,18.90
2018-09-02T09:00:43.808Z,19.20
2018-09-02T09:03:18.861Z,18.90
2018-09-02T09:05:52.091Z,19.00
2018-09-02T09:08:24.709Z,19.10
2018-09-02T09:10:58.874Z,19.00
2018-09-02T09:13:33.576Z,19.30
2018-09-02T09:16:05.266Z,19.50
2018-09-02T09:18:36.407Z,19.80
2018-09-02T09:21:09.633Z,19.70
2018-09-02T09:23:43.789Z,19.70
2018-09-02T09:26:16.650Z,19.80
2018-09-02T09:28:49.307Z,20.00
2018-09-02T09:31:22.241Z,20.10
2018-09-02T09:34:00.563Z,20.20
2018-09-02T09:36:34.810Z,20.50
2018-09-02T09:39:07.608Z,20.50
2018-09-02T09:41:39.849Z,20.40
2018-09-02T09:44:15.293Z,20.90
2018-09-02T09:46:51.251Z,21.30
2018-09-02T09:49:25.410Z,21.20
2018-09-02T09:51:58.638Z,21.50
2018-09-02T09:54:31.297Z,21.80
2018-09-02T09:57:03.672Z,22.00
2018-09-02T09:59:38.341Z,22.00
2018-09-02T10:02:10.034Z,22.10
2018-09-02T10:04:41.963Z,22.30
2018-09-02T10:07:13.084Z,22.30
2018-09-02T10:09:45.308Z,22.10
2018-09-02T10:12:22.391Z,22.20
2018-09-02T10:14:56.917Z,22.60
2018-09-02T10:17:32.419Z,23.20
2018-09-02T10:20:05.109Z,23.50
2018-09-02T10:22:40.635Z,24.10
2018-09-02T10:25:12.822Z,24.40
2018-09-02T10:27:44.036Z,24.40
2018-09-02T10:30:18.374Z,24.10
2018-09-02T10:32:55.287Z,24.40
2018-09-02T10:35:28.358Z,24.60
2018-09-02T10:38:02.807Z,24.20
2018-09-02T10:43:11.361Z,25.10
2018-09-02T10:45:43.889Z,24.90
2018-09-02T10:48:15.384Z,24.90
2018-09-02T10:50:51.035Z,25.40
2018-09-02T10:53:25.683Z,24.50
2018-09-02T10:56:06.056Z,24.20
2018-09-02T10:58:40.982Z,24.40
2018-09-02T11:01:16.203Z,24.60
2018-09-02T11:03:49.646Z,24.80
2018-09-02T11:06:27.463Z,24.40
2018-09-02T11:09:02.207Z,23.80
2018-09-02T11:11:33.411Z,23.70
2018-09-02T11:14:05.994Z,23.90
2018-09-02T11:16:39.079Z,24.60
2018-09-02T11:19:11.299Z,24.80
2018-09-02T11:21:42.206Z,24.90
2018-09-02T11:24:15.111Z,24.60
2018-09-02T11:26:50.798Z,24.50
2018-09-02T11:29:25.174Z,24.70
2018-09-02T11:31:58.469Z,24.70
2018-09-02T11:34:29.232Z,25.20
2018-09-02T11:36:58.736Z,25.50
2018-09-02T11:39:34.445Z,25.90
2018-09-02T11:42:08.406Z,25.50
2018-09-02T11:47:20.406Z,25.40
2018-09-02T11:49:54.411Z,26.40
2018-09-02T11:52:27.998Z,27.10
2018-09-02T11:55:00.742Z,27.20
2018-09-02T11:57:33.440Z,27.70
2018-09-02T12:00:07.531Z,27.10
2018-09-02T12:02:45.051Z,26.80
2018-09-02T12:05:16.693Z,27.40
2018-09-02T12:07:49.858Z,28.20
2018-09-02T12:10:23.751Z,28.30
2018-09-02T12:12:55.370Z,28.20
2018-09-02T12:15:27.130Z,28.10
2018-09-02T12:18:02.442Z,27.30
2018-09-02T12:20:35.574Z,26.80
2018-09-02T12:23:14.434Z,27.20
2018-09-02T12:25:50.878Z,27.20
2018-09-02T12:28:19.346Z,26.40
2018-09-02T12:30:54.560Z,25.60
2018-09-02T12:33:29.852Z,25.80
2018-09-02T12:36:09.573Z,25.20
2018-09-02T12:38:47.446Z,24.70
2018-09-02T12:41:21.836Z,24.60
2018-09-02T12:43:53.032Z,24.70
2018-09-02T12:46:27.313Z,24.70
2018-09-02T12:48:58.702Z,24.40
2018-09-02T12:51:31.324Z,24.10
2018-09-02T12:54:07.568Z,24.30
2018-09-02T12:56:46.606Z,24.70
2018-09-02T12:59:19.309Z,24.50
2018-09-02T13:01:57.115Z,24.40
2018-09-02T13:04:32.184Z,24.40
2018-09-02T13:07:09.215Z,24.40
2018-09-02T13:09:44.170Z,24.50
2018-09-02T13:12:17.429Z,24.60
2018-09-02T13:14:52.118Z,25.00
2018-09-02T13:17:22.271Z,26.90
2018-09-02T13:19:50.636Z,28.00
2018-09-02T13:22:18.957Z,28.20
2018-09-02T13:24:47.268Z,27.90
2018-09-02T13:27:15.617Z,26.90
2018-09-02T13:29:43.972Z,26.10
2018-09-02T13:32:14.045Z,26.90
2018-09-02T13:34:42.421Z,27.40
2018-09-02T13:37:10.719Z,28.30
2018-09-02T13:39:41.195Z,28.40
2018-09-02T13:42:13.533Z,28.30
2018-09-02T13:44:41.916Z,28.10
2018-09-02T13:47:10.867Z,27.70
2018-09-02T13:49:40.290Z,28.50
2018-09-02T13:52:08.773Z,29.40
2018-09-02T13:54:42.119Z,29.20
2018-09-02T13:57:10.402Z,29.50
2018-09-02T13:59:38.797Z,30.40
2018-09-02T14:02:07.087Z,31.00
2018-09-02T14:04:35.398Z,29.50
2018-09-02T14:07:03.761Z,28.60
2018-09-02T14:09:32.913Z,28.70
2018-09-02T14:12:01.224Z,29.20
2018-09-02T14:14:29.673Z,29.90
2018-09-02T14:16:57.998Z,30.20
2018-09-02T14:19:26.384Z,30.20
2018-09-02T14:21:54.708Z,30.20
2018-09-02T14:24:23.017Z,29.30
2018-09-02T14:26:51.340Z,28.50
2018-09-02T14:29:23.071Z,28.20
2018-09-02T14:31:52.129Z,27.70
2018-09-02T14:34:21.551Z,27.10
2018-09-02T14:36:49.968Z,27.30
2018-09-02T14:39:18.346Z,28.10
2018-09-02T14:41:46.656Z,28.00
2018-09-02T14:44:14.982Z,28.50
2018-09-02T14:46:43.348Z,28.00
2018-09-02T14:49:11.669Z,27.60
2018-09-02T14:51:40.112Z,27.70
2018-09-02T14:54:08.464Z,27.30
2018-09-02T14:56:36.923Z,27.00
2018-09-02T14:59:06.617Z,28.00
2018-09-02T15:01:34.955Z,28.20
2018-09-02T15:04:03.314Z,27.60
2018-09-02T15:06:31.828Z,27.30
2018-09-02T15:09:00.132Z,27.30
2018-09-02T15:11:28.556Z,27.20
2018-09-02T15:13:56.776Z,27.20
2018-09-02T15:16:26.759Z,26.90
2018-09-02T15:18:55.446Z,26.90
2018-09-02T15:21:24.037Z,26.50
2018-09-02T15:23:52.092Z,26.30
2018-09-02T15:26:20.408Z,25.50
2018-09-02T15:28:48.716Z,26.00
2018-09-02T15:31:17.321Z,26.60
2018-09-02T15:33:45.616Z,27.80
2018-09-02T15:36:18.424Z,27.40
2018-09-02T15:38:46.720Z,27.30
2018-09-02T15:41:20.954Z,27.50
2018-09-02T15:43:51.100Z,26.90
2018-09-02T15:46:19.465Z,26.70
2018-09-02T15:48:57.047Z,26.30
2018-09-02T15:51:25.403Z,25.90
2018-09-02T15:53:55.449Z,25.80
2018-09-02T15:56:33.639Z,26.00
2018-09-02T15:59:01.993Z,25.80
2018-09-02T16:01:31.251Z,25.50
2018-09-02T16:04:01.277Z,25.40
2018-09-02T16:06:30.174Z,25.30
2018-09-02T16:09:09.335Z,24.90
2018-09-02T16:11:39.898Z,24.80
2018-09-02T16:14:10.314Z,24.60
2018-09-02T16:16:40.724Z,24.60
2018-09-02T16:19:09.752Z,24.40
2018-09-02T16:21:43.450Z,24.50
2018-09-02T16:24:15.533Z,24.80
2018-09-02T16:26:43.918Z,24.70
2018-09-02T16:29:14.704Z,24.70
2018-09-02T16:31:43.841Z,24.60
2018-09-02T16:34:16.830Z,24.50
2018-09-02T16:36:48.556Z,24.60
2018-09-02T16:39:17.254Z,24.50
2018-09-02T16:41:48.842Z,24.60
2018-09-02T16:44:18.594Z,24.70
2018-09-02T16:46:46.929Z,24.50
2018-09-02T16:49:15.970Z,24.30
2018-09-02T16:51:44.326Z,24.30
2018-09-02T16:54:12.629Z,24.20
2018-09-02T16:56:40.949Z,24.10
2018-09-02T16:59:09.266Z,24.10
2018-09-02T17:01:37.580Z,24.10
2018-09-02T17:04:07.959Z,24.30
2018-09-02T17:06:36.934Z,24.30
2018-09-02T17:09:08.553Z,24.10
2018-09-02T17:11:37.043Z,23.80
2018-09-02T17:14:06.487Z,23.70
2018-09-02T17:16:36.025Z,23.80
2018-09-02T17:19:11.384Z,23.80
2018-09-02T17:21:39.841Z,23.80
2018-09-02T17:24:08.136Z,23.80
2018-09-02T17:26:36.451Z,23.80
2018-09-02T17:29:05.100Z,23.70
2018-09-02T17:31:33.653Z,23.60
2018-09-02T17:34:01.973Z,23.60
2018-09-02T17:36:30.362Z,23.60
2018-09-02T17:38:58.677Z,23.50
2018-09-02T17:41:30.696Z,23.40
2018-09-02T17:43:59.010Z,23.30
2018-09-02T17:46:27.341Z,23.20
2018-09-02T17:49:04.999Z,23.00
2018-09-02T17:51:33.309Z,22.90
2018-09-02T17:54:01.696Z,23.00
2018-09-02T17:56:30.025Z,22.80
2018-09-02T17:58:58.519Z,22.70
2018-09-02T18:01:26.899Z,22.60
2018-09-02T18:03:55.349Z,22.60
2018-09-02T18:06:26.561Z,22.60
2018-09-02T18:08:54.860Z,22.50
2018-09-02T18:11:23.209Z,22.40
2018-09-02T18:13:54.624Z,22.40
2018-09-02T18:16:22.986Z,22.30
2018-09-02T18:18:51.425Z,22.20
2018-09-02T18:21:19.850Z,22.10
2018-09-02T18:23:48.182Z,22.10
2018-09-02T18:26:16.505Z,22.10
2018-09-02T18:28:51.610Z,22.00
2018-09-02T18:31:30.499Z,22.00
2018-09-02T18:33:59.952Z,21.90
2018-09-02T18:36:28.702Z,21.90
2018-09-02T18:38:57.554Z,21.80
2018-09-02T18:41:27.085Z,21.70
2018-09-02T18:43:59.350Z,21.80
2018-09-02T18:46:27.782Z,21.70
2018-09-02T18:48:56.396Z,21.70
2018-09-02T18:51:25.662Z,21.70
2018-09-02T18:53:53.972Z,21.60
2018-09-02T18:56:22.765Z,21.50
2018-09-02T18:58:51.660Z,21.50
2018-09-02T19:01:20.840Z,21.40
2018-09-02T19:03:49.616Z,21.40
2018-09-02T19:06:18.576Z,21.40
2018-09-02T19:08:46.911Z,21.30
2018-09-02T19:11:15.221Z,21.20
2018-09-02T19:13:43.689Z,21.20
2018-09-02T19:16:12.052Z,21.20
2018-09-02T19:18:40.364Z,21.10
2018-09-02T19:21:08.697Z,21.10
2018-09-02T19:23:37.144Z,21.00
2018-09-02T19:26:05.972Z,21.00
2018-09-02T19:28:34.293Z,21.00
2018-09-02T19:31:02.609Z,20.90
2018-09-02T19:33:30.948Z,20.90
2018-09-02T19:35:59.425Z,20.90
2018-09-02T19:38:27.862Z,20.90
2018-09-02T19:40:56.193Z,20.90
2018-09-02T19:43:24.904Z,20.80
2018-09-02T19:45:54.127Z,20.80
2018-09-02T19:48:22.509Z,20.70
2018-09-02T19:50:50.848Z,20.80
2018-09-02T19:53:19.693Z,20.70
2018-09-02T19:55:49.044Z,20.70
2018-09-02T19:58:18.173Z,20.70
2018-09-02T20:00:47.425Z,20.60
2018-09-02T20:03:15.761Z,20.60
2018-09-02T20:05:44.912Z,20.60
2018-09-02T20:08:13.328Z,20.50
2018-09-02T20:10:41.676Z,20.50
2018-09-02T20:13:10.618Z,20.60
2018-09-02T20:15:40.113Z,20.60
2018-09-02T20:18:11.168Z,20.50
2018-09-02T20:20:39.537Z,20.50
2018-09-02T20:23:08.733Z,20.50
2018-09-02T20:25:37.490Z,20.50
2018-09-02T20:28:07.045Z,20.50
2018-09-02T20:30:35.381Z,20.30
2018-09-02T20:33:03.858Z,20.40
2018-09-02T20:35:43.518Z,20.40
2018-09-02T20:38:12.430Z,20.20
2018-09-02T20:40:42.033Z,20.20
2018-09-02T20:43:46.127Z,20.20
2018-09-02T20:46:16.119Z,20.10
2018-09-02T20:48:44.565Z,20.10
2018-09-02T20:51:51.040Z,20.10
2018-09-02T20:54:19.521Z,20.10
2018-09-02T20:56:48.286Z,20.10
2018-09-02T20:59:18.357Z,20.20
2018-09-02T21:01:46.708Z,20.10
2018-09-02T21:04:15.066Z,20.10
2018-09-02T21:06:43.376Z,20.00
2018-09-02T21:09:13.657Z,19.90
2018-09-02T21:11:42.283Z,19.90
2018-09-02T21:14:10.600Z,20.00
2018-09-02T21:16:38.933Z,20.00
2018-09-02T21:19:07.241Z,19.80
2018-09-02T21:21:35.569Z,19.70
2018-09-02T21:24:03.923Z,19.60
2018-09-02T21:26:32.262Z,19.50
2018-09-02T21:29:00.755Z,19.50
2018-09-02T21:31:29.196Z,19.60
2018-09-02T21:33:57.660Z,19.50
2018-09-02T21:36:26.066Z,19.40
2018-09-02T21:38:54.433Z,19.40
2018-09-02T21:41:22.725Z,19.50
2018-09-02T21:43:51.077Z,19.40
2018-09-02T21:46:19.410Z,19.40
2018-09-02T21:48:47.739Z,19.40
2018-09-02T21:51:16.072Z,19.40
2018-09-02T21:53:44.397Z,19.40
2018-09-02T21:56:12.707Z,19.40
2018-09-02T21:58:41.158Z,19.30
2018-09-02T22:01:09.466Z,19.30
2018-09-02T22:03:37.829Z,19.20
2018-09-02T22:06:06.653Z,19.20
2018-09-02T22:08:35.096Z,19.20
2018-09-02T22:11:03.462Z,19.20
2018-09-02T22:13:31.791Z,19.10
2018-09-02T22:16:00.410Z,19.10
2018-09-02T22:18:28.742Z,19.20
2018-09-02T22:20:57.089Z,19.20
2018-09-02T22:23:25.390Z,19.10
2018-09-02T22:25:53.697Z,19.00
2018-09-02T22:28:22.037Z,19.00
2018-09-02T22:30:50.353Z,19.10
2018-09-02T22:33:18.669Z,19.10
2018-09-02T22:35:47.005Z,19.10
2018-09-02T22:38:15.491Z,19.00
2018-09-02T22:40:44.196Z,19.10
2018-09-02T22:43:12.518Z,19.10
2018-09-02T22:45:40.833Z,19.10
2018-09-02T22:48:09.553Z,19.00
2018-09-02T22:50:37.868Z,19.00
2018-09-02T22:53:06.272Z,19.00
2018-09-02T22:55:34.589Z,19.00
2018-09-02T22:58:02.976Z,18.90
2018-09-02T23:00:31.294Z,18.80
2018-09-02T23:02:59.649Z,18.70
2018-09-02T23:05:27.968Z,18.60
2018-09-02T23:07:56.277Z,18.70
2018-09-02T23:10:24.592Z,18.60
2018-09-02T23:12:52.949Z,18.50
2018-09-02T23:15:21.245Z,18.50
2018-09-02T23:17:49.545Z,18.50
2018-09-02T23:20:17.913Z,18.50
2018-09-02T23:22:46.310Z,18.30
2018-09-02T23:25:14.648Z,18.20
2018-09-02T23:27:42.948Z,18.10
2018-09-02T23:30:11.260Z,18.20
2018-09-02T23:32:39.588Z,18.30
2018-09-02T23:35:07.913Z,18.40
2018-09-02T23:37:36.223Z,18.30
2018-09-02T23:40:05.434Z,18.30
2018-09-02T23:42:33.732Z,18.30
2018-09-02T23:45:02.085Z,18.30
2018-09-02T23:47:30.439Z,18.40
2018-09-02T23:49:59.513Z,18.40
2018-09-02T23:52:27.857Z,18.50
2018-09-02T23:54:56.148Z,18.50
2018-09-02T23:57:24.452Z,18.40
2018-09-02T23:59:52.817Z,18.50
